createdAt,value
2018-09-06T00:00:19.194Z,82.75
2018-09-06T00:02:54.220Z,84.39
2018-09-06T00:05:28.758Z,83.47
2018-09-06T00:08:04.077Z,83.83
2018-09-06T00:10:41.482Z,83.41
2018-09-06T00:13:16.200Z,83.54
2018-09-06T00:15:51.624Z,83.00
2018-09-06T00:18:26.244Z,82.98
2018-09-06T00:21:01.277Z,83.01
2018-09-06T00:23:35.779Z,82.24
2018-09-06T00:26:10.108Z,82.98
2018-09-06T00:28:44.794Z,82.88
2018-09-06T00:31:19.690Z,82.26
2018-09-06T00:33:54.683Z,83.29
2018-09-06T00:36:29.380Z,83.12
2018-09-06T00:39:04.930Z,83.44
2018-09-06T00:41:43.057Z,82.80
2018-09-06T00:44:18.037Z,81.75
2018-09-06T00:46:52.952Z,81.82
2018-09-06T00:49:27.362Z,82.49
2018-09-06T00:52:02.055Z,82.10
2018-09-06T00:54:36.967Z,82.27
2018-09-06T00:57:11.812Z,82.09
2018-09-06T00:59:46.846Z,81.92
2018-09-06T01:02:21.431Z,82.42
2018-09-06T01:04:56.200Z,81.37
2018-09-06T01:07:31.175Z,82.68
2018-09-06T01:10:06.789Z,82.34
2018-09-06T01:12:41.455Z,82.79
2018-09-06T01:15:15.982Z,82.46
2018-09-06T01:17:50.522Z,83.32
2018-09-06T01:20:24.887Z,84.01
2018-09-06T01:22:59.610Z,83.85
2018-09-06T01:25:39.888Z,84.17
2018-09-06T01:28:14.511Z,83.39
2018-09-06T01:30:49.920Z,84.18
2018-09-06T01:33:24.331Z,84.39
2018-09-06T01:36:04.609Z,84.31
2018-09-06T01:38:38.961Z,83.85
2018-09-06T01:41:14.103Z,83.43
2018-09-06T01:43:48.784Z,83.30
2018-09-06T01:46:23.559Z,83.58
2018-09-06T01:48:58.052Z,82.87
2018-09-06T01:51:32.688Z,83.80
2018-09-06T01:54:07.628Z,83.91
2018-09-06T01:56:42.583Z,84.64
2018-09-06T01:59:17.079Z,84.58
2018-09-06T02:01:52.387Z,84.52
2018-09-06T02:04:26.734Z,83.60
2018-09-06T02:07:01.585Z,82.46
2018-09-06T02:09:36.196Z,84.00
2018-09-06T02:12:11.175Z,84.55
2018-09-06T02:14:45.768Z,83.96
2018-09-06T02:17:20.747Z,83.07
2018-09-06T02:19:55.565Z,82.81
2018-09-06T02:22:30.333Z,82.20
2018-09-06T02:25:04.951Z,83.16
2018-09-06T02:27:39.641Z,82.70
2018-09-06T02:30:14.467Z,82.92
2018-09-06T02:32:48.796Z,83.24
2018-09-06T02:35:23.218Z,83.25
2018-09-06T02:37:58.076Z,82.47
2018-09-06T02:40:39.216Z,82.37
2018-09-06T02:43:15.039Z,82.91
2018-09-06T02:45:49.767Z,82.99
2018-09-06T02:48:30.238Z,82.59
2018-09-06T02:51:09.873Z,82.27
2018-09-06T02:53:45.177Z,82.90
2018-09-06T02:56:19.940Z,83.35
2018-09-06T02:58:54.999Z,82.81
2018-09-06T03:01:29.996Z,83.19
2018-09-06T03:04:04.620Z,82.87
2018-09-06T03:06:39.292Z,83.47
2018-09-06T03:09:13.691Z,83.57
2018-09-06T03:11:49.227Z,83.08
2018-09-06T03:14:23.742Z,83.19
2018-09-06T03:16:58.501Z,82.87
2018-09-06T03:19:33.242Z,83.13
2018-09-06T03:22:08.692Z,83.27
2018-09-06T03:24:43.751Z,82.99
2018-09-06T03:27:18.595Z,83.22
2018-09-06T03:29:53.108Z,83.92
2018-09-06T03:32:28.593Z,83.68
2018-09-06T03:35:03.453Z,83.42
2018-09-06T03:37:38.419Z,83.85
2018-09-06T03:40:12.871Z,83.40
2018-09-06T03:42:47.587Z,83.11
2018-09-06T03:45:21.967Z,83.11
2018-09-06T03:47:56.965Z,83.83
2018-09-06T03:50:32.267Z,83.36
2018-09-06T03:53:06.862Z,83.07
2018-09-06T03:55:41.719Z,84.85
2018-09-06T03:58:16.335Z,83.88
2018-09-06T04:00:51.208Z,84.44
2018-09-06T04:03:26.068Z,85.48
2018-09-06T04:06:00.656Z,84.71
2018-09-06T04:08:35.143Z,84.85
2018-09-06T04:11:09.944Z,84.17
2018-09-06T04:13:45.074Z,83.56
2018-09-06T04:16:19.558Z,83.90
2018-09-06T04:18:54.415Z,83.74
2018-09-06T04:21:28.975Z,84.60
2018-09-06T04:24:03.831Z,83.64
2018-09-06T04:26:38.124Z,84.22
2018-09-06T04:29:12.668Z,84.23
2018-09-06T04:31:47.432Z,83.58
2018-09-06T04:34:21.907Z,82.92
2018-09-06T04:36:56.656Z,83.53
2018-09-06T04:39:31.311Z,83.43
2018-09-06T04:42:06.298Z,83.27
2018-09-06T04:44:41.469Z,83.83
2018-09-06T04:47:16.044Z,83.79
2018-09-06T04:49:50.679Z,83.79
2018-09-06T04:52:25.421Z,83.13
2018-09-06T04:55:00.392Z,82.80
2018-09-06T04:57:35.268Z,83.06
2018-09-06T05:00:09.764Z,84.91
2018-09-06T05:02:44.364Z,85.11
2018-09-06T05:05:19.245Z,84.51
2018-09-06T05:07:53.943Z,84.61
2018-09-06T05:10:28.461Z,84.97
2018-09-06T05:13:02.807Z,85.38
2018-09-06T05:15:37.212Z,85.28
2018-09-06T05:18:11.752Z,84.88
2018-09-06T05:20:46.579Z,84.89
2018-09-06T05:23:21.048Z,84.49
2018-09-06T05:25:55.687Z,84.15
2018-09-06T05:28:30.644Z,83.64
2018-09-06T05:31:05.224Z,83.90
2018-09-06T05:33:39.737Z,83.70
2018-09-06T05:36:14.303Z,83.60
2018-09-06T05:38:49.107Z,84.13
2018-09-06T05:41:23.760Z,84.50
2018-09-06T05:43:58.642Z,85.63
2018-09-06T05:46:33.461Z,86.06
2018-09-06T05:49:08.179Z,86.58
2018-09-06T05:51:42.864Z,85.78
2018-09-06T05:54:17.356Z,86.26
2018-09-06T05:56:52.038Z,85.98
2018-09-06T05:59:26.926Z,85.85
2018-09-06T06:02:01.756Z,86.25
2018-09-06T06:04:36.649Z,85.44
2018-09-06T06:07:11.625Z,86.52
2018-09-06T06:09:46.359Z,86.50
2018-09-06T06:12:20.815Z,85.95
2018-09-06T06:14:55.749Z,86.43
2018-09-06T06:17:30.287Z,86.66
2018-09-06T06:20:05.586Z,86.98
2018-09-06T06:22:40.469Z,86.60
2018-09-06T06:25:14.941Z,86.84
2018-09-06T06:27:50.362Z,87.01
2018-09-06T06:30:25.432Z,86.79
2018-09-06T06:33:00.179Z,87.35
2018-09-06T06:35:34.968Z,87.12
2018-09-06T06:38:09.311Z,86.81
2018-09-06T06:40:43.767Z,86.96
2018-09-06T06:43:18.711Z,86.75
2018-09-06T06:45:53.479Z,85.98
2018-09-06T06:48:28.284Z,86.25
2018-09-06T06:51:02.963Z,86.19
2018-09-06T06:53:37.358Z,85.34
2018-09-06T06:56:12.183Z,86.01
2018-09-06T06:58:47.223Z,85.78
2018-09-06T07:01:22.392Z,85.47
2018-09-06T07:03:57.136Z,85.69
2018-09-06T07:06:32.043Z,84.12
2018-09-06T07:09:08.327Z,82.94
2018-09-06T07:11:42.828Z,84.63
2018-09-06T07:14:17.216Z,85.05
2018-09-06T07:16:52.068Z,84.27
2018-09-06T07:19:27.414Z,84.52
2018-09-06T07:22:02.080Z,85.11
2018-09-06T07:24:36.727Z,84.62
2018-09-06T07:27:11.595Z,83.65
2018-09-06T07:29:46.439Z,84.35
2018-09-06T07:32:22.033Z,85.32
2018-09-06T07:34:57.503Z,84.70
2018-09-06T07:37:32.228Z,83.38
2018-09-06T07:40:06.823Z,85.12
2018-09-06T07:42:41.784Z,82.10
2018-09-06T07:45:16.275Z,82.13
2018-09-06T07:47:50.870Z,82.86
2018-09-06T07:50:25.675Z,81.90
2018-09-06T07:53:00.657Z,81.70
2018-09-06T07:55:35.660Z,81.15
2018-09-06T07:58:10.800Z,83.28
2018-09-06T08:00:45.113Z,82.76
2018-09-06T08:03:20.345Z,84.27
2018-09-06T08:05:55.092Z,82.72
2018-09-06T08:08:29.525Z,80.68
2018-09-06T08:11:04.428Z,78.96
2018-09-06T08:13:39.612Z,79.76
2018-09-06T08:16:14.060Z,77.56
2018-09-06T08:18:49.430Z,75.58
2018-09-06T08:21:24.603Z,76.58
2018-09-06T08:23:59.106Z,76.96
2018-09-06T08:26:34.127Z,75.21
2018-09-06T08:29:08.939Z,76.29
2018-09-06T08:31:43.301Z,74.28
2018-09-06T08:34:18.492Z,71.10
2018-09-06T08:36:53.530Z,71.05
2018-09-06T08:39:28.835Z,69.18
2018-09-06T08:42:03.295Z,72.11
2018-09-06T08:44:38.296Z,72.73
2018-09-06T08:47:12.788Z,71.46
2018-09-06T08:49:47.783Z,71.13
2018-09-06T08:52:22.237Z,66.45
2018-09-06T08:54:57.204Z,64.98
2018-09-06T08:57:31.752Z,65.49
2018-09-06T09:00:06.304Z,64.37
2018-09-06T09:02:40.876Z,67.37
2018-09-06T09:05:15.633Z,66.93
2018-09-06T09:07:50.704Z,61.23
2018-09-06T09:10:25.710Z,61.53
2018-09-06T09:13:00.909Z,60.38
2018-09-06T09:15:35.872Z,63.92
2018-09-06T09:18:10.558Z,63.76
2018-09-06T09:20:45.130Z,62.10
2018-09-06T09:23:19.540Z,62.07
2018-09-06T09:25:54.388Z,58.38
2018-09-06T09:28:28.875Z,59.98
2018-09-06T09:31:03.582Z,56.37
2018-09-06T09:33:38.449Z,57.46
2018-09-06T09:36:14.942Z,56.80
2018-09-06T09:38:50.560Z,57.51
2018-09-06T09:41:25.160Z,55.10
2018-09-06T09:43:59.888Z,55.35
2018-09-06T09:49:09.003Z,53.88
2018-09-06T09:51:43.846Z,53.43
2018-09-06T09:54:18.479Z,55.39
2018-09-06T09:56:52.958Z,56.30
2018-09-06T09:59:27.664Z,54.65
2018-09-06T10:02:07.206Z,56.72
2018-09-06T10:04:47.183Z,54.80
2018-09-06T10:07:27.081Z,52.58
2018-09-06T10:10:02.834Z,52.33
2018-09-06T10:12:37.631Z,58.12
2018-09-06T10:15:12.635Z,56.90
2018-09-06T10:17:47.413Z,60.44
2018-09-06T10:20:22.227Z,57.97
2018-09-06T10:22:57.074Z,55.83
2018-09-06T10:25:31.807Z,50.36
2018-09-06T10:28:06.491Z,50.64
2018-09-06T10:30:41.530Z,51.77
2018-09-06T10:33:16.452Z,48.92
2018-09-06T10:35:51.781Z,54.49
2018-09-06T10:38:26.419Z,52.92
2018-09-06T10:41:00.878Z,53.33
2018-09-06T10:43:35.820Z,53.85
2018-09-06T10:46:10.485Z,49.30
2018-09-06T10:48:45.399Z,49.65
2018-09-06T10:51:19.785Z,53.00
2018-09-06T10:53:54.884Z,50.66
2018-09-06T10:56:29.957Z,49.23
2018-09-06T10:59:04.411Z,46.74
2018-09-06T11:01:39.647Z,51.98
2018-09-06T11:04:14.650Z,49.72
2018-09-06T11:06:49.074Z,50.86
2018-09-06T11:09:23.926Z,49.02
2018-09-06T11:11:58.828Z,47.93
2018-09-06T11:14:33.200Z,50.15
2018-09-06T11:17:08.420Z,45.99
2018-09-06T11:19:42.713Z,44.59
2018-09-06T11:22:17.349Z,45.77
2018-09-06T11:24:52.375Z,46.27
2018-09-06T11:27:27.243Z,46.61
2018-09-06T11:30:01.876Z,49.76
2018-09-06T11:32:36.731Z,47.99
2018-09-06T11:35:11.548Z,44.10
2018-09-06T11:37:46.762Z,45.72
2018-09-06T11:40:21.247Z,44.02
2018-09-06T11:42:56.738Z,48.04
2018-09-06T11:45:31.623Z,46.57
2018-09-06T11:48:05.971Z,42.94
2018-09-06T11:50:41.191Z,43.28
2018-09-06T11:53:15.647Z,43.91
2018-09-06T11:55:50.724Z,41.67
2018-09-06T11:58:25.495Z,47.39
2018-09-06T12:00:59.971Z,46.26
2018-09-06T12:03:35.127Z,45.84
2018-09-06T12:06:10.071Z,42.83
2018-09-06T12:08:45.259Z,43.96
2018-09-06T12:11:19.780Z,43.35
2018-09-06T12:13:54.650Z,40.59
2018-09-06T12:16:29.209Z,38.93
2018-09-06T12:19:04.361Z,40.43
2018-09-06T12:21:39.420Z,38.83
2018-09-06T12:24:14.171Z,39.58
2018-09-06T12:26:48.871Z,40.36
2018-09-06T12:29:23.611Z,40.19
2018-09-06T12:31:58.869Z,41.16
2018-09-06T12:34:34.004Z,42.93
2018-09-06T12:37:12.117Z,37.72
2018-09-06T12:39:46.752Z,39.64
2018-09-06T12:42:21.983Z,40.15
2018-09-06T12:44:56.835Z,40.45
2018-09-06T12:47:32.039Z,37.61
2018-09-06T12:50:06.764Z,40.98
2018-09-06T12:52:41.520Z,38.26
2018-09-06T12:55:16.072Z,37.05
2018-09-06T12:57:51.533Z,37.32
2018-09-06T13:00:26.599Z,38.09
2018-09-06T13:03:01.138Z,36.01
2018-09-06T13:05:35.645Z,38.06
2018-09-06T13:08:10.181Z,41.90
2018-09-06T13:10:45.675Z,36.67
2018-09-06T13:13:20.338Z,38.79
2018-09-06T13:15:54.772Z,35.75
2018-09-06T13:18:29.289Z,35.65
2018-09-06T13:21:03.971Z,36.91
2018-09-06T13:23:38.488Z,36.54
2018-09-06T13:26:13.511Z,41.07
2018-09-06T13:28:47.965Z,41.41
2018-09-06T13:31:22.743Z,41.32
2018-09-06T13:33:57.511Z,41.01
2018-09-06T13:36:32.028Z,39.88
2018-09-06T13:39:09.037Z,41.49
2018-09-06T13:41:43.451Z,37.05
2018-09-06T13:44:18.179Z,37.73
2018-09-06T13:46:53.159Z,41.43
2018-09-06T13:49:27.849Z,38.30
2018-09-06T13:52:02.393Z,34.07
2018-09-06T13:54:37.507Z,43.37
2018-09-06T13:57:11.987Z,42.32
2018-09-06T13:59:46.252Z,43.53
2018-09-06T14:02:20.959Z,39.74
2018-09-06T14:04:55.653Z,37.10
2018-09-06T14:07:30.531Z,41.00
2018-09-06T14:10:05.646Z,37.58
2018-09-06T14:12:40.463Z,38.90
2018-09-06T14:15:15.240Z,39.98
2018-09-06T14:17:49.693Z,35.51
2018-09-06T14:20:24.091Z,40.42
2018-09-06T14:22:58.487Z,42.22
2018-09-06T14:25:33.602Z,39.90
2018-09-06T14:28:08.215Z,39.46
2018-09-06T14:30:42.819Z,42.11
2018-09-06T14:33:17.408Z,38.09
2018-09-06T14:35:51.952Z,38.19
2018-09-06T14:38:26.590Z,40.48
2018-09-06T14:41:01.183Z,43.38
2018-09-06T14:43:35.801Z,38.65
2018-09-06T14:46:10.387Z,42.50
2018-09-06T14:48:44.789Z,42.17
2018-09-06T14:51:19.472Z,40.60
2018-09-06T14:53:54.155Z,41.41
2018-09-06T14:56:29.235Z,41.58
2018-09-06T14:59:03.801Z,38.08
2018-09-06T15:01:38.292Z,44.15
2018-09-06T15:04:12.957Z,41.98
2018-09-06T15:06:47.897Z,41.45
2018-09-06T15:09:22.213Z,43.69
2018-09-06T15:11:57.039Z,42.11
2018-09-06T15:14:31.775Z,42.60
2018-09-06T15:17:06.239Z,43.25
2018-09-06T15:19:40.925Z,40.89
2018-09-06T15:22:15.294Z,44.67
2018-09-06T15:24:49.710Z,44.90
2018-09-06T15:27:24.154Z,42.75
2018-09-06T15:29:58.468Z,41.91
2018-09-06T15:32:33.362Z,43.45
2018-09-06T15:35:07.959Z,43.28
2018-09-06T15:37:42.450Z,43.49
2018-09-06T15:40:16.816Z,43.41
2018-09-06T15:42:51.326Z,45.70
2018-09-06T15:45:25.775Z,43.96
2018-09-06T15:48:00.320Z,42.01
2018-09-06T15:50:36.661Z,44.53
2018-09-06T15:53:11.319Z,44.21
2018-09-06T15:55:46.628Z,45.54
2018-09-06T15:58:21.259Z,46.09
2018-09-06T16:00:55.666Z,44.00
2018-09-06T16:03:30.469Z,44.21
2018-09-06T16:06:05.647Z,43.62
2018-09-06T16:08:40.111Z,44.64
2018-09-06T16:11:14.839Z,43.31
2018-09-06T16:13:49.728Z,44.59
2018-09-06T16:16:24.044Z,44.75
2018-09-06T16:18:58.652Z,45.82
2018-09-06T16:21:33.322Z,45.63
2018-09-06T16:24:07.833Z,45.26
2018-09-06T16:26:44.728Z,45.60
2018-09-06T16:29:19.289Z,46.00
2018-09-06T16:31:53.820Z,45.01
2018-09-06T16:34:29.065Z,48.06
2018-09-06T16:37:03.758Z,46.96
2018-09-06T16:39:38.415Z,48.33
2018-09-06T16:42:13.199Z,49.21
2018-09-06T16:44:47.836Z,48.69
2018-09-06T16:47:22.199Z,48.57
2018-09-06T16:49:56.649Z,49.65
2018-09-06T16:52:31.274Z,50.45
2018-09-06T16:55:08.436Z,50.85
2018-09-06T16:57:43.236Z,49.70
2018-09-06T17:00:17.723Z,50.22
2018-09-06T17:02:52.315Z,50.16
2018-09-06T17:05:27.103Z,50.60
2018-09-06T17:08:01.971Z,50.60
2018-09-06T17:10:36.472Z,51.85
2018-09-06T17:13:11.101Z,51.75
2018-09-06T17:15:45.649Z,51.98
2018-09-06T17:18:20.095Z,52.09
2018-09-06T17:20:54.561Z,53.85
2018-09-06T17:23:29.538Z,56.96
2018-09-06T17:26:04.678Z,58.57
2018-09-06T17:28:39.257Z,57.66
2018-09-06T17:31:13.903Z,58.24
2018-09-06T17:33:48.220Z,57.71
2018-09-06T17:36:23.234Z,58.53
2018-09-06T17:38:57.726Z,60.14
2018-09-06T17:41:32.428Z,60.56
2018-09-06T17:44:07.168Z,60.26
2018-09-06T17:46:41.701Z,60.77
2018-09-06T17:49:16.667Z,61.77
2018-09-06T17:51:51.382Z,62.75
2018-09-06T17:54:25.863Z,63.03
2018-09-06T17:57:00.927Z,63.10
2018-09-06T17:59:35.212Z,63.16
2018-09-06T18:02:10.057Z,63.83
2018-09-06T18:04:45.059Z,64.42
2018-09-06T18:07:19.768Z,64.73
2018-09-06T18:09:54.044Z,64.47
2018-09-06T18:12:28.711Z,65.08
2018-09-06T18:15:03.169Z,65.22
2018-09-06T18:17:37.871Z,65.77
2018-09-06T18:20:12.443Z,66.60
2018-09-06T18:22:47.213Z,66.07
2018-09-06T18:25:21.658Z,66.61
2018-09-06T18:27:56.992Z,67.36
2018-09-06T18:30:31.616Z,67.08
2018-09-06T18:33:06.088Z,67.83
2018-09-06T18:35:40.913Z,68.04
2018-09-06T18:38:15.708Z,67.13
2018-09-06T18:40:50.701Z,67.22
2018-09-06T18:43:25.019Z,67.39
2018-09-06T18:45:59.299Z,67.73
2018-09-06T18:48:34.372Z,68.38
2018-09-06T18:51:09.154Z,68.31
2018-09-06T18:53:44.234Z,68.73
2018-09-06T18:56:18.796Z,68.88
2018-09-06T18:58:53.445Z,69.14
2018-09-06T19:01:27.972Z,69.48
2018-09-06T19:04:02.472Z,69.88
2018-09-06T19:06:37.663Z,69.58
2018-09-06T19:09:13.299Z,68.17
2018-09-06T19:11:47.915Z,68.37
2018-09-06T19:14:22.785Z,67.45
2018-09-06T19:16:57.344Z,68.33
2018-09-06T19:19:31.796Z,68.39
2018-09-06T19:22:06.431Z,66.74
2018-09-06T19:24:44.819Z,66.50
2018-09-06T19:27:19.319Z,66.85
2018-09-06T19:29:53.876Z,67.86
2018-09-06T19:32:28.731Z,67.12
2018-09-06T19:35:03.536Z,67.53
2018-09-06T19:37:37.843Z,67.03
2018-09-06T19:40:12.640Z,66.80
2018-09-06T19:42:47.391Z,66.97
2018-09-06T19:45:22.113Z,66.72
2018-09-06T19:47:56.757Z,67.04
2018-09-06T19:50:31.279Z,68.49
2018-09-06T19:53:05.976Z,69.55
2018-09-06T19:55:40.311Z,70.56
2018-09-06T19:58:15.275Z,72.18
2018-09-06T20:00:50.267Z,72.61
2018-09-06T20:03:24.799Z,74.33
2018-09-06T20:05:59.396Z,74.84
2018-09-06T20:08:33.848Z,76.12
2018-09-06T20:11:08.343Z,76.21
2018-09-06T20:13:42.991Z,77.06
2018-09-06T20:16:19.483Z,77.97
2018-09-06T20:18:54.152Z,78.98
2018-09-06T20:24:29.724Z,79.43
2018-09-06T20:27:05.135Z,80.28
2018-09-06T20:29:39.846Z,79.90
2018-09-06T20:32:14.807Z,79.74
2018-09-06T20:34:49.935Z,79.79
2018-09-06T20:37:24.843Z,79.33
2018-09-06T20:40:02.207Z,80.06
2018-09-06T20:42:40.820Z,79.35
2018-09-06T20:45:15.517Z,80.83
2018-09-06T20:47:50.276Z,82.10
2018-09-06T20:50:25.224Z,82.21
2018-09-06T20:53:00.148Z,81.49
2018-09-06T20:55:35.080Z,82.44
2018-09-06T20:58:09.971Z,82.50
2018-09-06T21:00:44.476Z,81.61
2018-09-06T21:03:20.772Z,81.70
2018-09-06T21:05:56.076Z,81.72
2018-09-06T21:08:31.373Z,82.00
2018-09-06T21:11:07.351Z,81.32
2018-09-06T21:13:42.064Z,81.57
2018-09-06T21:16:16.793Z,81.25
2018-09-06T21:18:51.466Z,80.43
2018-09-06T21:21:25.957Z,81.26
2018-09-06T21:24:00.835Z,80.34
2018-09-06T21:26:35.747Z,80.08
2018-09-06T21:29:10.431Z,80.19
2018-09-06T21:31:44.838Z,81.06
2018-09-06T21:34:19.299Z,80.76
2018-09-06T21:36:53.912Z,81.06
2018-09-06T21:39:28.380Z,80.63
2018-09-06T21:42:03.502Z,81.32
2018-09-06T21:44:38.036Z,81.54
2018-09-06T21:47:12.500Z,81.63
2018-09-06T21:49:46.815Z,81.41
2018-09-06T21:52:21.227Z,81.61
2018-09-06T21:54:56.061Z,81.83
2018-09-06T21:57:30.708Z,81.00
2018-09-06T22:00:05.693Z,81.05
2018-09-06T22:03:44.488Z,81.34
2018-09-06T22:06:19.244Z,81.38
2018-09-06T22:08:53.623Z,81.36
2018-09-06T22:11:28.359Z,81.72
2018-09-06T22:14:03.209Z,81.93
2018-09-06T22:16:37.862Z,81.74
2018-09-06T22:19:12.563Z,82.71
2018-09-06T22:21:47.168Z,82.37
2018-09-06T22:24:22.088Z,82.94
2018-09-06T22:26:56.428Z,82.91
2018-09-06T22:29:31.469Z,83.17
2018-09-06T22:32:06.070Z,83.34
2018-09-06T22:34:40.555Z,83.02
2018-09-06T22:37:14.894Z,82.29
2018-09-06T22:39:49.672Z,83.03
2018-09-06T22:42:23.952Z,82.61
2018-09-06T22:44:58.761Z,83.01
2018-09-06T22:47:33.764Z,82.55
2018-09-06T22:50:08.683Z,83.81
2018-09-06T22:52:43.420Z,83.45
2018-09-06T22:55:18.559Z,83.30
2018-09-06T22:57:52.987Z,83.88
2018-09-06T23:00:31.252Z,84.14
2018-09-06T23:03:11.112Z,84.35
2018-09-06T23:05:45.483Z,83.39
2018-09-06T23:08:19.879Z,83.80
2018-09-06T23:10:54.442Z,84.56
2018-09-06T23:13:29.017Z,84.31
2018-09-06T23:16:03.875Z,84.57
2018-09-06T23:18:38.183Z,84.25
2018-09-06T23:21:13.089Z,85.70
2018-09-06T23:23:47.873Z,85.39
2018-09-06T23:26:22.444Z,84.94
2018-09-06T23:28:57.307Z,85.01
2018-09-06T23:31:31.952Z,85.31
2018-09-06T23:34:06.627Z,86.32
2018-09-06T23:36:41.324Z,85.95
2018-09-06T23:39:15.717Z,86.10
2018-09-06T23:41:50.604Z,85.54
2018-09-06T23:44:25.376Z,85.75
2018-09-06T23:47:00.755Z,86.13
2018-09-06T23:49:35.195Z,86.43
2018-09-06T23:52:12.148Z,85.97
2018-09-06T23:54:47.223Z,85.68
2018-09-06T23:57:22.083Z,86.29
2018-09-06T23:59:56.996Z,86.51
